createdAt,value
2022-10-17T00:08:28.870Z,15.35
2022-10-17T00:38:32.952Z,15.63
2022-10-17T01:08:37.547Z,15.51
2022-10-17T01:38:45.596Z,15.08
2022-10-17T02:39:13.325Z,14.43
2022-10-17T03:09:17.770Z,14.23
2022-10-17T03:39:21.958Z,14.13
2022-10-17T04:09:26.080Z,14.10
2022-10-17T04:39:30.515Z,14.17
2022-10-17T05:09:34.602Z,13.88
2022-10-17T05:39:39.346Z,13.74
2022-10-17T06:09:43.520Z,14.06
2022-10-17T06:39:47.847Z,14.88
2022-10-17T07:09:52.783Z,15.61
2022-10-17T07:39:57.862Z,16.90
2022-10-17T08:10:02.422Z,17.39
2022-10-17T08:40:07.856Z,18.58
2022-10-17T09:10:18.491Z,21.60
2022-10-17T09:40:25.894Z,23.41
2022-10-17T10:10:30.898Z,24.70
2022-10-17T10:40:38.009Z,23.25
2022-10-17T11:10:45.758Z,25.80
2022-10-17T11:40:52.413Z,24.50
2022-10-17T12:10:59.427Z,27.82
2022-10-17T12:41:05.775Z,26.31
2022-10-17T13:11:10.423Z,29.73
2022-10-17T13:41:35.955Z,30.07
2022-10-17T14:11:41.821Z,24.78
2022-10-17T14:41:47.064Z,24.68
2022-10-17T15:11:51.983Z,23.14
2022-10-17T15:41:56.195Z,21.88
2022-10-17T16:12:01.596Z,20.90
2022-10-17T16:42:05.867Z,20.12
2022-10-17T17:12:10.003Z,19.50
2022-10-17T17:42:14.118Z,18.87
2022-10-17T18:12:18.279Z,18.58
2022-10-17T18:42:22.620Z,18.77
2022-10-17T19:12:27.034Z,18.64
2022-10-17T19:42:31.658Z,18.43
2022-10-17T20:12:36.117Z,18.02
2022-10-17T20:42:40.324Z,17.91
2022-10-17T21:12:53.818Z,17.78
2022-10-17T21:42:58.648Z,17.66
2022-10-17T22:13:02.925Z,17.63
2022-10-17T22:43:07.108Z,17.61
2022-10-17T23:13:11.499Z,17.50
2022-10-17T23:43:15.618Z,17.45
